Terminal Aerodrome Forecast
Issued by NWS

Home | Current Version | Previous Version | Text Only | Print | Product List | Glossary On
Versions: 1 2 3 4 5 6 7 8 9 10 11 12 13 14 15 16 17
000
FTUS44 KBMX 301406 AAB
TAFANB
TAF AMD
KANB 301406Z 3014/3112 30007KT P6SM BKN015 OVC040
      TEMPO 3014/3016 BKN008 OVC015
     FM301730 30006KT P6SM FEW040
     FM310000 00000KT P6SM SKC=

USA.gov is the U.S. government's official web portal to all federal, state and local government web resources and services.